createdAt,value
2022-11-21T00:01:52.592Z,99648.09
2022-11-21T00:04:20.977Z,99644.78
2022-11-21T00:06:49.105Z,99642.59
2022-11-21T00:09:27.302Z,99634.66
2022-11-21T00:11:57.414Z,99636.69
2022-11-21T00:14:26.802Z,99638.19
2022-11-21T00:16:57.528Z,99640.94
2022-11-21T00:19:25.936Z,99641.09
2022-11-21T00:21:57.273Z,99637.09
2022-11-21T00:24:27.279Z,99640.75
2022-11-21T00:26:59.838Z,99649.56
2022-11-21T00:29:42.629Z,99654.13
2022-11-21T00:32:11.029Z,99646.59
2022-11-21T00:34:39.365Z,99649.34
2022-11-21T00:37:11.247Z,99648.09
2022-11-21T00:39:43.516Z,99647.00
2022-11-21T00:42:11.701Z,99640.06
2022-11-21T00:44:40.441Z,99644.47
2022-11-21T00:47:11.311Z,99641.19
2022-11-21T00:49:41.940Z,99634.78
2022-11-21T00:52:11.397Z,99629.09
2022-11-21T00:54:39.691Z,99631.25
2022-11-21T00:57:09.664Z,99622.06
2022-11-21T00:59:40.025Z,99619.94
2022-11-21T01:02:08.454Z,99617.53
2022-11-21T01:04:36.954Z,99613.34
2022-11-21T01:07:06.344Z,99607.66
2022-11-21T01:09:34.487Z,99600.16
2022-11-21T01:12:03.245Z,99596.09
2022-11-21T01:14:35.693Z,99597.91
2022-11-21T01:17:04.122Z,99610.44
2022-11-21T01:19:32.702Z,99590.81
2022-11-21T01:22:01.128Z,99596.47
2022-11-21T01:24:29.604Z,99595.88
2022-11-21T01:26:57.816Z,99585.63
2022-11-21T01:29:29.957Z,99595.59
2022-11-21T01:32:02.347Z,99589.84
2022-11-21T01:34:35.294Z,99595.84
2022-11-21T01:37:04.757Z,99595.84
2022-11-21T01:39:33.015Z,99590.69
2022-11-21T01:42:02.010Z,99596.78
2022-11-21T01:44:49.170Z,99598.63
2022-11-21T01:47:19.503Z,99605.16
2022-11-21T01:49:49.489Z,99598.38
2022-11-21T01:52:24.958Z,99596.31
2022-11-21T01:54:56.207Z,99595.75
2022-11-21T01:57:28.626Z,99594.81
2022-11-21T02:00:01.289Z,99595.06
2022-11-21T02:02:37.744Z,99605.31
2022-11-21T02:05:08.890Z,99595.56
2022-11-21T02:07:45.567Z,99594.38
2022-11-21T02:10:15.372Z,99595.06
2022-11-21T02:12:46.927Z,99597.75
2022-11-21T02:15:16.574Z,99595.13
2022-11-21T02:17:46.156Z,99594.84
2022-11-21T02:20:19.197Z,99604.28
2022-11-21T02:23:02.093Z,99600.53
2022-11-21T02:25:35.264Z,99606.16
2022-11-21T02:28:07.140Z,99607.44
2022-11-21T02:30:40.769Z,99602.13
2022-11-21T02:33:10.376Z,99602.13
2022-11-21T02:35:39.031Z,99603.09
2022-11-21T02:38:15.696Z,99607.38
2022-11-21T02:40:53.568Z,99600.81
2022-11-21T02:43:27.242Z,99605.63
2022-11-21T02:45:56.503Z,99600.34
2022-11-21T02:48:25.194Z,99597.84
2022-11-21T02:50:55.821Z,99602.41
2022-11-21T02:53:24.548Z,99600.19
2022-11-21T02:55:54.171Z,99586.81
2022-11-21T02:58:22.688Z,99601.06
2022-11-21T03:00:52.084Z,99590.63
2022-11-21T03:03:22.044Z,99599.00
2022-11-21T03:05:50.863Z,99597.84
2022-11-21T03:08:19.634Z,99596.81
2022-11-21T03:10:48.302Z,99592.78
2022-11-21T03:13:20.477Z,99587.28
2022-11-21T03:15:50.939Z,99591.97
2022-11-21T03:18:21.749Z,99596.72
2022-11-21T03:20:50.371Z,99589.81
2022-11-21T03:23:21.983Z,99592.44
2022-11-21T03:25:52.326Z,99584.06
2022-11-21T03:28:22.111Z,99582.69
2022-11-21T03:30:50.548Z,99583.09
2022-11-21T03:33:18.583Z,99581.84
2022-11-21T03:35:49.386Z,99588.00
2022-11-21T03:38:18.408Z,99585.59
2022-11-21T03:40:48.015Z,99589.63
2022-11-21T03:43:17.355Z,99595.63
2022-11-21T03:45:49.867Z,99596.50
2022-11-21T03:48:19.576Z,99596.00
2022-11-21T03:50:47.793Z,99603.56
2022-11-21T03:53:16.144Z,99601.75
2022-11-21T03:55:44.924Z,99602.47
2022-11-21T03:58:13.509Z,99598.84
2022-11-21T04:00:44.256Z,99597.25
2022-11-21T04:03:15.254Z,99598.84
2022-11-21T04:05:45.509Z,99596.78
2022-11-21T04:08:17.873Z,99593.97
2022-11-21T04:10:48.299Z,99600.13
2022-11-21T04:13:17.318Z,99589.09
2022-11-21T04:15:46.647Z,99601.88
2022-11-21T04:18:16.558Z,99597.66
2022-11-21T04:20:45.976Z,99609.91
2022-11-21T04:23:15.038Z,99598.94
2022-11-21T04:25:43.561Z,99597.78
2022-11-21T04:28:14.475Z,99602.56
2022-11-21T04:30:42.570Z,99601.41
2022-11-21T04:33:11.813Z,99609.13
2022-11-21T04:35:45.830Z,99607.97
2022-11-21T04:38:15.580Z,99601.00
2022-11-21T04:40:45.521Z,99604.88
2022-11-21T04:43:21.727Z,99604.69
2022-11-21T04:45:50.076Z,99608.72
2022-11-21T04:48:20.407Z,99603.22
2022-11-21T04:50:50.705Z,99605.81
2022-11-21T04:53:21.520Z,99604.22
2022-11-21T04:55:50.749Z,99609.56
2022-11-21T04:58:19.169Z,99611.47
2022-11-21T05:00:48.189Z,99594.44
2022-11-21T05:03:16.947Z,99599.06
2022-11-21T05:05:45.386Z,99600.53
2022-11-21T05:08:15.545Z,99587.00
2022-11-21T05:11:02.518Z,99599.13
2022-11-21T05:13:31.163Z,99601.53
2022-11-21T05:15:59.547Z,99598.25
2022-11-21T05:18:28.017Z,99599.00
2022-11-21T05:20:56.449Z,99601.59
2022-11-21T05:23:29.738Z,99594.09
2022-11-21T05:26:00.900Z,99597.03
2022-11-21T05:28:29.155Z,99596.31
2022-11-21T05:30:58.391Z,99600.50
2022-11-21T05:33:26.698Z,99597.03
2022-11-21T05:35:55.105Z,99597.25
2022-11-21T05:38:26.949Z,99591.53
2022-11-21T05:40:57.979Z,99591.19
2022-11-21T05:43:44.039Z,99590.84
2022-11-21T05:46:15.466Z,99587.75
2022-11-21T05:48:44.123Z,99591.22
2022-11-21T05:51:13.301Z,99585.81
2022-11-21T05:53:42.008Z,99581.41
2022-11-21T05:56:13.214Z,99589.91
2022-11-21T05:58:42.278Z,99591.03
2022-11-21T06:01:14.500Z,99582.66
2022-11-21T06:03:43.611Z,99595.66
2022-11-21T06:06:14.249Z,99588.88
2022-11-21T06:08:45.956Z,99589.31
2022-11-21T06:11:17.149Z,99587.09
2022-11-21T06:13:45.547Z,99597.38
2022-11-21T06:16:17.997Z,99597.00
2022-11-21T06:18:51.686Z,99604.53
2022-11-21T06:21:27.581Z,99597.56
2022-11-21T06:23:58.672Z,99596.28
2022-11-21T06:26:30.126Z,99593.72
2022-11-21T06:29:03.400Z,99608.22
2022-11-21T06:31:31.856Z,99601.41
2022-11-21T06:34:01.737Z,99598.13
2022-11-21T06:36:40.536Z,99594.84
2022-11-21T06:39:09.101Z,99585.72
2022-11-21T06:41:41.576Z,99583.16
2022-11-21T06:44:10.154Z,99589.38
2022-11-21T06:46:39.250Z,99586.06
2022-11-21T06:49:07.625Z,99583.69
2022-11-21T06:51:35.989Z,99583.84
2022-11-21T06:54:05.997Z,99583.84
2022-11-21T06:56:37.490Z,99596.09
2022-11-21T06:59:09.809Z,99596.25
2022-11-21T07:01:38.673Z,99594.38
2022-11-21T07:04:07.598Z,99598.75
2022-11-21T07:06:36.143Z,99596.53
2022-11-21T07:09:32.281Z,99596.69
2022-11-21T07:12:18.818Z,99598.31
2022-11-21T07:14:50.470Z,99594.84
2022-11-21T07:17:19.185Z,99606.56
2022-11-21T07:19:48.126Z,99599.41
2022-11-21T07:22:18.020Z,99601.94
2022-11-21T07:24:46.912Z,99595.13
2022-11-21T07:27:15.984Z,99600.97
2022-11-21T07:29:44.182Z,99601.44
2022-11-21T07:32:17.049Z,99623.22
2022-11-21T07:34:45.437Z,99614.06
2022-11-21T07:37:14.086Z,99619.91
2022-11-21T07:39:43.377Z,99619.34
2022-11-21T07:42:11.846Z,99603.06
2022-11-21T07:44:40.661Z,99608.75
2022-11-21T07:47:09.503Z,99604.41
2022-11-21T07:49:42.122Z,99617.72
2022-11-21T07:52:11.438Z,99625.84
2022-11-21T07:54:39.560Z,99634.19
2022-11-21T07:57:07.721Z,99631.19
2022-11-21T07:59:35.834Z,99625.00
2022-11-21T08:02:04.372Z,99632.38
2022-11-21T08:04:32.801Z,99633.69
2022-11-21T08:07:03.225Z,99628.00
2022-11-21T08:09:35.961Z,99616.81
2022-11-21T08:12:07.047Z,99633.00
2022-11-21T08:14:35.828Z,99623.38
2022-11-21T08:17:04.687Z,99629.09
2022-11-21T08:19:34.987Z,99624.84
2022-11-21T08:22:05.653Z,99634.41
2022-11-21T08:24:35.615Z,99634.19
2022-11-21T08:27:03.701Z,99627.06
2022-11-21T08:29:34.304Z,99614.50
2022-11-21T08:32:05.908Z,99612.31
2022-11-21T08:34:34.669Z,99618.53
2022-11-21T08:37:03.556Z,99620.19
2022-11-21T08:39:34.359Z,99616.72
2022-11-21T08:42:04.031Z,99622.22
2022-11-21T08:44:34.597Z,99616.78
2022-11-21T08:47:03.650Z,99614.22
2022-11-21T08:49:36.014Z,99598.09
2022-11-21T08:52:04.769Z,99614.25
2022-11-21T08:54:36.451Z,99598.66
2022-11-21T08:57:05.191Z,99608.75
2022-11-21T08:59:33.344Z,99607.09
2022-11-21T09:02:03.657Z,99596.59
2022-11-21T09:04:35.081Z,99607.63
2022-11-21T09:07:04.224Z,99609.84
2022-11-21T09:09:32.667Z,99605.78
2022-11-21T09:12:03.664Z,99601.94
2022-11-21T09:14:50.404Z,99591.44
2022-11-21T09:17:36.939Z,99594.75
2022-11-21T09:20:06.450Z,99601.72
2022-11-21T09:22:36.499Z,99599.88
2022-11-21T09:25:08.133Z,99604.66
2022-11-21T09:27:37.652Z,99598.19
2022-11-21T09:30:06.864Z,99589.88
2022-11-21T09:32:42.493Z,99597.72
2022-11-21T09:35:12.129Z,99594.34
2022-11-21T09:37:40.883Z,99592.31
2022-11-21T09:40:16.811Z,99597.84
2022-11-21T09:43:07.354Z,99594.63
2022-11-21T09:45:43.573Z,99597.81
2022-11-21T09:48:19.124Z,99595.22
2022-11-21T09:50:53.995Z,99590.13
2022-11-21T09:53:28.363Z,99588.88
2022-11-21T09:56:00.208Z,99589.56
2022-11-21T09:58:34.379Z,99584.31
2022-11-21T10:01:03.111Z,99579.13
2022-11-21T10:03:35.785Z,99577.09
2022-11-21T10:06:18.283Z,99578.50
2022-11-21T10:08:58.657Z,99563.91
2022-11-21T10:12:00.292Z,99561.00
2022-11-21T10:14:46.475Z,99556.50
2022-11-21T10:17:23.745Z,99542.81
2022-11-21T10:20:10.024Z,99545.34
2022-11-21T10:23:21.592Z,99546.69
2022-11-21T10:25:56.144Z,99545.22
2022-11-21T10:28:30.279Z,99534.56
2022-11-21T10:31:02.708Z,99545.72
2022-11-21T10:36:31.606Z,99538.00
2022-11-21T10:39:06.954Z,99523.66
2022-11-21T10:41:44.248Z,99528.28
2022-11-21T10:44:41.698Z,99521.72
2022-11-21T10:47:27.460Z,99507.63
2022-11-21T10:50:05.375Z,99507.13
2022-11-21T10:52:36.873Z,99508.47
2022-11-21T10:55:12.822Z,99503.16
2022-11-21T10:57:46.629Z,99499.22
2022-11-21T11:00:20.655Z,99494.56
2022-11-21T11:03:07.823Z,99480.69
2022-11-21T11:05:37.832Z,99485.19
2022-11-21T11:08:10.528Z,99480.25
2022-11-21T11:10:42.998Z,99480.88
2022-11-21T11:13:51.369Z,99475.66
2022-11-21T11:16:24.011Z,99466.59
2022-11-21T11:18:58.390Z,99462.06
2022-11-21T11:21:28.468Z,99460.09
2022-11-21T11:24:23.410Z,99459.41
2022-11-21T11:26:53.882Z,99449.69
2022-11-21T11:29:28.120Z,99444.63
2022-11-21T11:32:04.011Z,99434.22
2022-11-21T11:34:43.004Z,99420.59
2022-11-21T11:37:15.150Z,99415.63
2022-11-21T11:39:56.938Z,99414.78
2022-11-21T11:43:11.851Z,99411.53
2022-11-21T11:46:17.061Z,99403.09
2022-11-21T11:49:11.304Z,99398.53
2022-11-21T11:51:41.930Z,99402.00
2022-11-21T11:54:17.582Z,99395.00
2022-11-21T11:56:47.750Z,99386.84
2022-11-21T11:59:22.745Z,99382.09
2022-11-21T12:01:57.605Z,99371.72
2022-11-21T12:04:34.341Z,99366.59
2022-11-21T12:10:08.733Z,99367.19
2022-11-21T12:12:43.039Z,99360.53
2022-11-21T12:15:33.660Z,99354.09
2022-11-21T12:18:12.751Z,99348.16
2022-11-21T12:20:53.547Z,99346.53
2022-11-21T12:23:31.907Z,99333.59
2022-11-21T12:26:14.150Z,99336.09
2022-11-21T12:28:56.546Z,99335.22
2022-11-21T12:31:32.584Z,99328.47
2022-11-21T12:34:13.962Z,99323.88
2022-11-21T12:36:47.324Z,99315.06
2022-11-21T12:39:54.009Z,99306.84
2022-11-21T12:42:52.217Z,99305.53
2022-11-21T12:45:30.448Z,99300.75
2022-11-21T12:48:56.722Z,99290.09
2022-11-21T12:51:58.318Z,99296.22
2022-11-21T12:54:49.578Z,99297.00
2022-11-21T12:57:27.336Z,99287.66
2022-11-21T13:00:03.704Z,99276.16
2022-11-21T13:02:45.976Z,99273.59
2022-11-21T13:05:21.243Z,99271.88
2022-11-21T13:07:52.742Z,99265.00
2022-11-21T13:10:24.209Z,99259.97
2022-11-21T13:13:03.122Z,99259.38
2022-11-21T13:15:41.572Z,99250.88
2022-11-21T13:18:22.288Z,99247.91
2022-11-21T13:20:52.875Z,99242.56
2022-11-21T13:23:38.555Z,99231.84
2022-11-21T13:26:44.888Z,99224.25
2022-11-21T13:29:16.292Z,99224.00
2022-11-21T13:31:46.076Z,99211.38
2022-11-21T13:34:41.024Z,99207.00
2022-11-21T13:37:09.234Z,99213.28
2022-11-21T13:39:42.150Z,99217.13
2022-11-21T13:42:30.548Z,99206.78
2022-11-21T13:45:22.503Z,99199.75
2022-11-21T13:48:09.819Z,99196.88
2022-11-21T13:51:19.654Z,99192.66
2022-11-21T13:54:20.154Z,99190.72
2022-11-21T13:57:05.794Z,99184.81
2022-11-21T13:59:54.555Z,99175.38
2022-11-21T14:03:10.295Z,99162.41
2022-11-21T14:06:00.497Z,99149.59
2022-11-21T14:08:35.657Z,99142.75
2022-11-21T14:11:24.356Z,99136.38
2022-11-21T14:13:53.324Z,99138.41
2022-11-21T14:16:31.887Z,99125.47
2022-11-21T14:19:03.634Z,99131.84
2022-11-21T14:21:34.419Z,99126.19
2022-11-21T14:24:14.580Z,99122.81
2022-11-21T14:26:51.905Z,99113.19
2022-11-21T14:29:22.750Z,99115.91
2022-11-21T14:31:51.502Z,99108.56
2022-11-21T14:34:31.732Z,99110.03
2022-11-21T14:37:02.432Z,99111.41
2022-11-21T14:39:40.773Z,99102.44
2022-11-21T14:42:15.606Z,99116.59
2022-11-21T14:44:44.606Z,99118.72
2022-11-21T14:47:25.336Z,99104.94
2022-11-21T14:50:02.263Z,99093.44
2022-11-21T14:52:38.393Z,99099.84
2022-11-21T14:55:30.256Z,99100.84
2022-11-21T14:58:01.387Z,99095.22
2022-11-21T15:03:20.702Z,99075.69
2022-11-21T15:06:04.013Z,99068.94
2022-11-21T15:11:30.411Z,99050.69
2022-11-21T15:14:20.042Z,99045.06
2022-11-21T15:16:50.854Z,99039.28
2022-11-21T15:19:22.811Z,99027.28
2022-11-21T15:21:55.233Z,99019.44
2022-11-21T15:24:40.152Z,99017.63
2022-11-21T15:28:02.679Z,99001.38
2022-11-21T15:30:34.697Z,98991.44
2022-11-21T15:33:06.557Z,98985.44
2022-11-21T15:35:50.479Z,98976.22
2022-11-21T15:38:25.630Z,98960.06
2022-11-21T15:41:07.163Z,98951.31
2022-11-21T15:43:37.937Z,98941.38
2022-11-21T15:46:14.726Z,98942.91
2022-11-21T15:48:43.552Z,98930.44
2022-11-21T15:51:12.628Z,98933.28
2022-11-21T15:53:42.241Z,98912.34
2022-11-21T15:56:21.351Z,98905.81
2022-11-21T15:58:52.893Z,98899.06
2022-11-21T16:01:23.975Z,98893.31
2022-11-21T16:03:57.307Z,98876.16
2022-11-21T16:06:27.546Z,98872.59
2022-11-21T16:08:58.467Z,98860.31
2022-11-21T16:11:29.377Z,98857.81
2022-11-21T16:13:59.695Z,98851.41
2022-11-21T16:16:34.057Z,98851.41
2022-11-21T16:19:02.642Z,98848.72
2022-11-21T16:21:32.590Z,98840.50
2022-11-21T16:24:01.913Z,98842.84
2022-11-21T16:26:30.683Z,98832.28
2022-11-21T16:29:00.964Z,98832.75
2022-11-21T16:31:31.728Z,98834.44
2022-11-21T16:34:00.716Z,98823.66
2022-11-21T16:36:31.522Z,98818.94
2022-11-21T16:39:07.693Z,98831.09
2022-11-21T16:41:41.714Z,98819.03
2022-11-21T16:44:16.081Z,98811.56
2022-11-21T16:46:47.994Z,98820.16
2022-11-21T16:49:16.570Z,98805.25
2022-11-21T16:51:48.041Z,98803.09
2022-11-21T16:54:16.484Z,98802.88
2022-11-21T16:56:49.009Z,98816.25
2022-11-21T16:59:19.432Z,98811.69
2022-11-21T17:01:48.672Z,98812.66
2022-11-21T17:04:17.902Z,98801.66
2022-11-21T17:06:51.411Z,98799.34
2022-11-21T17:09:19.977Z,98798.84
2022-11-21T17:11:50.391Z,98788.97
2022-11-21T17:14:18.511Z,98781.41
2022-11-21T17:16:49.419Z,98783.19
2022-11-21T17:19:18.827Z,98768.03
2022-11-21T17:21:47.580Z,98770.28
2022-11-21T17:24:17.976Z,98747.03
2022-11-21T17:26:51.657Z,98735.50
2022-11-21T17:29:22.112Z,98718.03
2022-11-21T17:31:51.074Z,98730.50
2022-11-21T17:34:19.211Z,98735.22
2022-11-21T17:36:47.429Z,98738.31
2022-11-21T17:39:17.990Z,98738.94
2022-11-21T17:41:47.178Z,98743.59
2022-11-21T17:44:16.863Z,98748.56
2022-11-21T17:46:48.118Z,98753.19
2022-11-21T17:49:16.288Z,98761.81
2022-11-21T17:51:46.104Z,98749.94
2022-11-21T17:54:16.430Z,98732.13
2022-11-21T17:56:52.632Z,98727.47
2022-11-21T17:59:25.173Z,98747.66
2022-11-21T18:02:01.145Z,98734.81
2022-11-21T18:04:41.102Z,98731.16
2022-11-21T18:07:13.811Z,98727.91
2022-11-21T18:09:42.066Z,98723.28
2022-11-21T18:12:10.515Z,98720.31
2022-11-21T18:14:39.872Z,98736.75
2022-11-21T18:17:09.916Z,98742.13
2022-11-21T18:19:37.984Z,98736.66
2022-11-21T18:22:07.572Z,98750.09
2022-11-21T18:24:38.645Z,98737.16
2022-11-21T18:27:09.316Z,98725.25
2022-11-21T18:29:40.050Z,98708.25
2022-11-21T18:32:10.295Z,98716.44
2022-11-21T18:34:40.280Z,98713.47
2022-11-21T18:37:12.075Z,98701.47
2022-11-21T18:39:43.104Z,98709.28
2022-11-21T18:42:12.985Z,98714.38
2022-11-21T18:44:41.352Z,98716.75
2022-11-21T18:47:20.411Z,98726.06
2022-11-21T18:49:51.448Z,98733.84
2022-11-21T18:52:23.032Z,98753.38
2022-11-21T18:54:51.822Z,98761.22
2022-11-21T18:57:20.455Z,98764.94
2022-11-21T18:59:48.823Z,98759.81
2022-11-21T19:02:18.564Z,98743.00
2022-11-21T19:04:47.870Z,98739.03
2022-11-21T19:07:17.109Z,98733.03
2022-11-21T19:09:46.886Z,98733.13
2022-11-21T19:12:19.770Z,98728.56
2022-11-21T19:14:51.986Z,98720.00
2022-11-21T19:17:26.630Z,98714.34
2022-11-21T19:19:54.804Z,98702.78
2022-11-21T19:22:23.302Z,98695.81
2022-11-21T19:24:54.946Z,98680.34
2022-11-21T19:27:25.086Z,98669.66
2022-11-21T19:29:56.522Z,98672.69
2022-11-21T19:32:26.092Z,98667.59
2022-11-21T19:34:54.496Z,98651.91
2022-11-21T19:37:22.827Z,98653.94
2022-11-21T19:39:51.333Z,98646.06
2022-11-21T19:42:19.933Z,98651.19
2022-11-21T19:44:48.538Z,98646.06
2022-11-21T19:47:21.240Z,98641.41
2022-11-21T19:49:53.870Z,98642.88
2022-11-21T19:52:27.559Z,98636.94
2022-11-21T19:54:56.219Z,98634.75
2022-11-21T19:57:26.685Z,98640.28
2022-11-21T19:59:57.221Z,98647.88
2022-11-21T20:02:35.113Z,98633.97
2022-11-21T20:05:04.937Z,98627.03
2022-11-21T20:07:34.690Z,98625.47
2022-11-21T20:10:02.800Z,98633.25
2022-11-21T20:12:36.983Z,98624.88
2022-11-21T20:15:05.971Z,98624.88
2022-11-21T20:17:35.562Z,98619.53
2022-11-21T20:20:06.325Z,98620.69
2022-11-21T20:22:37.158Z,98620.72
2022-11-21T20:25:08.671Z,98619.56
2022-11-21T20:27:37.083Z,98617.41
2022-11-21T20:30:07.663Z,98607.25
2022-11-21T20:32:36.449Z,98604.63
2022-11-21T20:35:08.129Z,98597.66
2022-11-21T20:37:37.477Z,98594.47
2022-11-21T20:40:06.431Z,98590.09
2022-11-21T20:42:37.230Z,98591.75
2022-11-21T20:46:06.346Z,98598.34
2022-11-21T20:47:57.113Z,98594.16
2022-11-21T20:51:14.764Z,98593.72
2022-11-21T20:56:06.341Z,98594.88
2022-11-21T20:58:38.048Z,98589.38
2022-11-21T21:01:08.046Z,98588.06
2022-11-21T21:03:37.929Z,98595.28
2022-11-21T21:06:13.369Z,98588.16
2022-11-21T21:08:41.645Z,98599.03
2022-11-21T21:11:36.883Z,98598.16
2022-11-21T21:14:03.621Z,98590.03
2022-11-21T21:16:34.497Z,98597.09
2022-11-21T21:19:05.368Z,98586.63
2022-11-21T21:21:36.626Z,98592.25
2022-11-21T21:24:07.297Z,98590.50
2022-11-21T21:26:42.495Z,98592.81
2022-11-21T21:29:14.982Z,98588.00
2022-11-21T21:31:49.907Z,98587.69
2022-11-21T21:34:19.680Z,98590.28
2022-11-21T21:36:50.373Z,98574.34
2022-11-21T21:39:22.322Z,98563.34
2022-11-21T21:41:50.716Z,98564.59
2022-11-21T21:44:20.472Z,98569.38
2022-11-21T21:46:52.084Z,98566.63
2022-11-21T21:49:20.829Z,98567.06
2022-11-21T21:51:50.479Z,98573.84
2022-11-21T21:54:23.715Z,98576.59
2022-11-21T21:56:53.657Z,98579.19
2022-11-21T21:59:21.976Z,98582.22
2022-11-21T22:01:50.553Z,98579.63
2022-11-21T22:04:20.058Z,98576.38
2022-11-21T22:06:49.910Z,98576.25
2022-11-21T22:09:18.349Z,98575.06
2022-11-21T22:11:48.284Z,98574.72
2022-11-21T22:14:18.195Z,98576.59
2022-11-21T22:16:47.761Z,98567.06
2022-11-21T22:19:17.441Z,98579.06
2022-11-21T22:21:45.848Z,98570.63
2022-11-21T22:24:25.309Z,98572.06
2022-11-21T22:26:54.406Z,98558.66
2022-11-21T22:29:22.788Z,98564.72
2022-11-21T22:31:55.454Z,98571.34
2022-11-21T22:34:27.999Z,98570.78
2022-11-21T22:36:57.127Z,98565.91
2022-11-21T22:39:27.344Z,98566.91
2022-11-21T22:42:00.060Z,98565.75
2022-11-21T22:44:28.827Z,98561.22
2022-11-21T22:46:57.133Z,98564.50
2022-11-21T22:49:25.558Z,98571.25
2022-11-21T22:51:54.573Z,98562.69
2022-11-21T22:54:23.320Z,98556.28
2022-11-21T22:56:53.206Z,98558.16
2022-11-21T22:59:24.092Z,98551.94
2022-11-21T23:01:52.577Z,98549.03
2022-11-21T23:04:21.898Z,98548.84
2022-11-21T23:06:50.277Z,98546.53
2022-11-21T23:09:19.292Z,98549.53
2022-11-21T23:11:47.599Z,98548.97
2022-11-21T23:14:17.961Z,98555.78
2022-11-21T23:16:46.117Z,98540.72
2022-11-21T23:19:15.464Z,98532.78
2022-11-21T23:21:43.759Z,98521.31
2022-11-21T23:24:13.413Z,98528.97
2022-11-21T23:26:43.032Z,98521.63
2022-11-21T23:29:11.641Z,98516.53
2022-11-21T23:31:42.739Z,98511.59
2022-11-21T23:34:13.914Z,98512.91
2022-11-21T23:36:42.175Z,98513.78
2022-11-21T23:39:11.101Z,98518.69
2022-11-21T23:41:39.607Z,98516.84
2022-11-21T23:44:08.708Z,98510.94
2022-11-21T23:46:36.792Z,98515.84
2022-11-21T23:49:07.443Z,98512.69
2022-11-21T23:51:35.872Z,98512.84
2022-11-21T23:54:04.310Z,98519.25
2022-11-21T23:56:32.461Z,98510.00
2022-11-21T23:59:01.043Z,98523.03
